createdAt,value
2023-03-29T00:00:31.351Z,99953.97
2023-03-29T00:02:33.482Z,99955.44
2023-03-29T00:04:35.720Z,99951.81
2023-03-29T00:06:37.775Z,99950.38
2023-03-29T00:08:40.041Z,99941.34
2023-03-29T00:10:42.200Z,99938.72
2023-03-29T00:12:43.631Z,99936.63
2023-03-29T00:14:45.202Z,99934.56
2023-03-29T00:16:47.076Z,99929.03
2023-03-29T00:18:48.666Z,99928.56
2023-03-29T00:21:00.157Z,99926.31
2023-03-29T00:23:02.018Z,99918.16
2023-03-29T00:25:04.311Z,99915.38
2023-03-29T00:27:05.946Z,99912.66
2023-03-29T00:29:07.321Z,99916.25
2023-03-29T00:31:11.913Z,99913.47
2023-03-29T00:33:14.705Z,99906.78
2023-03-29T00:35:16.608Z,99907.44
2023-03-29T00:37:18.853Z,99907.94
2023-03-29T00:39:21.092Z,99913.19
2023-03-29T00:41:22.569Z,99913.03
2023-03-29T00:43:24.187Z,99900.72
2023-03-29T00:45:30.255Z,99909.59
2023-03-29T00:47:42.239Z,99903.16
2023-03-29T00:49:45.993Z,99897.59
2023-03-29T00:51:48.172Z,99902.00
2023-03-29T00:53:54.590Z,99897.22
2023-03-29T00:56:02.438Z,99888.22
2023-03-29T00:58:08.652Z,99879.34
2023-03-29T01:00:11.934Z,99883.44
2023-03-29T01:02:16.137Z,99879.03
2023-03-29T01:04:38.279Z,99875.59
2023-03-29T01:06:43.344Z,99873.59
2023-03-29T01:08:50.972Z,99873.44
2023-03-29T01:11:18.483Z,99867.00
2023-03-29T01:13:28.056Z,99870.63
2023-03-29T01:15:30.365Z,99867.47
2023-03-29T01:17:33.152Z,99863.88
2023-03-29T01:19:42.249Z,99867.31
2023-03-29T01:22:13.492Z,99862.69
2023-03-29T01:24:41.943Z,99859.09
2023-03-29T01:27:00.526Z,99858.06
2023-03-29T01:29:09.687Z,99859.25
2023-03-29T01:31:18.495Z,99852.66
2023-03-29T01:33:23.767Z,99855.94
2023-03-29T01:35:35.699Z,99844.66
2023-03-29T01:37:41.248Z,99846.91
2023-03-29T01:39:42.820Z,99845.91
2023-03-29T01:42:14.367Z,99836.22
2023-03-29T01:44:27.081Z,99840.47
2023-03-29T01:46:37.611Z,99837.84
2023-03-29T01:48:51.466Z,99828.19
2023-03-29T01:51:07.642Z,99824.59
2023-03-29T01:53:30.134Z,99825.41
2023-03-29T01:55:38.400Z,99825.41
2023-03-29T01:57:43.894Z,99819.34
2023-03-29T01:59:47.406Z,99807.88
2023-03-29T02:01:52.969Z,99801.84
2023-03-29T02:04:00.376Z,99802.63
2023-03-29T02:06:03.554Z,99798.22
2023-03-29T02:08:09.169Z,99793.63
2023-03-29T02:10:12.163Z,99791.63
2023-03-29T02:12:16.739Z,99792.59
2023-03-29T02:14:18.195Z,99786.38
2023-03-29T02:16:20.393Z,99793.03
2023-03-29T02:18:22.166Z,99788.00
2023-03-29T02:20:28.844Z,99776.34
2023-03-29T02:22:42.098Z,99786.66
2023-03-29T02:24:46.469Z,99780.59
2023-03-29T02:26:48.736Z,99779.78
2023-03-29T02:28:51.575Z,99794.31
2023-03-29T02:31:04.657Z,99786.28
2023-03-29T02:33:10.891Z,99786.44
2023-03-29T02:35:20.621Z,99784.47
2023-03-29T02:37:26.544Z,99783.50
2023-03-29T02:39:31.681Z,99781.50
2023-03-29T02:41:34.675Z,99787.34
2023-03-29T02:43:38.069Z,99787.16
2023-03-29T02:45:41.081Z,99779.59
2023-03-29T02:47:48.521Z,99776.97
2023-03-29T02:49:50.377Z,99770.72
2023-03-29T02:51:55.973Z,99759.25
2023-03-29T02:54:12.701Z,99756.06
2023-03-29T02:56:14.378Z,99752.44
2023-03-29T02:58:15.925Z,99748.22
2023-03-29T03:00:19.659Z,99748.84
2023-03-29T03:02:21.398Z,99744.22
2023-03-29T03:04:22.818Z,99743.22
2023-03-29T03:06:24.263Z,99753.53
2023-03-29T03:08:26.147Z,99743.03
2023-03-29T03:10:27.790Z,99737.81
2023-03-29T03:12:29.354Z,99741.84
2023-03-29T03:14:30.768Z,99733.81
2023-03-29T03:16:32.318Z,99731.19
2023-03-29T03:18:33.926Z,99738.41
2023-03-29T03:20:35.857Z,99726.56
2023-03-29T03:22:37.223Z,99733.44
2023-03-29T03:24:38.684Z,99725.19
2023-03-29T03:26:40.077Z,99730.66
2023-03-29T03:28:41.978Z,99726.81
2023-03-29T03:30:43.848Z,99736.31
2023-03-29T03:32:45.331Z,99735.13
2023-03-29T03:34:46.713Z,99735.13
2023-03-29T03:36:48.114Z,99738.38
2023-03-29T03:38:49.610Z,99734.75
2023-03-29T03:40:57.251Z,99731.16
2023-03-29T03:42:58.663Z,99733.75
2023-03-29T03:45:00.111Z,99728.53
2023-03-29T03:47:01.504Z,99729.13
2023-03-29T03:49:02.948Z,99724.69
2023-03-29T03:51:04.824Z,99729.56
2023-03-29T03:53:07.309Z,99722.34
2023-03-29T03:55:09.303Z,99725.56
2023-03-29T03:57:11.018Z,99723.59
2023-03-29T03:59:12.567Z,99727.00
2023-03-29T04:01:14.096Z,99719.78
2023-03-29T04:03:17.159Z,99722.41
2023-03-29T04:05:19.872Z,99712.53
2023-03-29T04:07:21.270Z,99719.41
2023-03-29T04:09:23.335Z,99714.97
2023-03-29T04:11:24.735Z,99725.88
2023-03-29T04:13:27.068Z,99724.47
2023-03-29T04:15:29.307Z,99723.25
2023-03-29T04:17:30.897Z,99718.63
2023-03-29T04:19:32.488Z,99727.94
2023-03-29T04:21:34.400Z,99722.50
2023-03-29T04:23:36.470Z,99722.50
2023-03-29T04:25:37.843Z,99722.13
2023-03-29T04:27:39.944Z,99717.50
2023-03-29T04:29:44.705Z,99720.75
2023-03-29T04:31:46.258Z,99721.38
2023-03-29T04:33:47.777Z,99721.81
2023-03-29T04:35:49.192Z,99726.03
2023-03-29T04:37:51.470Z,99715.53
2023-03-29T04:39:54.330Z,99710.13
2023-03-29T04:41:55.901Z,99708.31
2023-03-29T04:43:57.257Z,99708.09
2023-03-29T04:45:58.710Z,99708.09
2023-03-29T04:48:00.158Z,99711.38
2023-03-29T04:50:02.229Z,99706.13
2023-03-29T04:52:03.654Z,99698.25
2023-03-29T04:54:05.199Z,99699.06
2023-03-29T04:56:07.958Z,99697.03
2023-03-29T04:58:09.985Z,99695.44
2023-03-29T05:00:15.133Z,99700.50
2023-03-29T05:02:16.981Z,99685.56
2023-03-29T05:04:18.413Z,99695.88
2023-03-29T05:06:19.852Z,99689.00
2023-03-29T05:08:21.631Z,99689.19
2023-03-29T05:10:23.522Z,99689.00
2023-03-29T05:12:25.181Z,99690.41
2023-03-29T05:14:26.743Z,99689.44
2023-03-29T05:16:30.173Z,99685.00
2023-03-29T05:18:31.855Z,99689.59
2023-03-29T05:20:33.296Z,99685.00
2023-03-29T05:22:36.222Z,99690.84
2023-03-29T05:24:37.621Z,99691.47
2023-03-29T05:26:39.950Z,99696.09
2023-03-29T05:28:42.056Z,99694.72
2023-03-29T05:30:43.501Z,99693.50
2023-03-29T05:32:45.039Z,99690.06
2023-03-29T05:34:46.464Z,99694.97
2023-03-29T05:36:48.972Z,99688.91
2023-03-29T05:38:50.720Z,99689.50
2023-03-29T05:40:52.837Z,99686.53
2023-03-29T05:42:54.210Z,99697.19
2023-03-29T05:44:55.621Z,99696.22
2023-03-29T05:46:57.258Z,99695.84
2023-03-29T05:48:58.670Z,99695.84
2023-03-29T05:51:00.245Z,99693.81
2023-03-29T05:53:01.960Z,99699.28
2023-03-29T05:55:04.257Z,99704.13
2023-03-29T05:57:06.134Z,99702.94
2023-03-29T05:59:08.455Z,99701.13
2023-03-29T06:01:18.716Z,99699.31
2023-03-29T06:03:23.726Z,99706.81
2023-03-29T06:05:25.971Z,99710.25
2023-03-29T06:07:27.347Z,99716.91
2023-03-29T06:09:28.750Z,99709.03
2023-03-29T06:11:30.511Z,99702.41
2023-03-29T06:13:37.121Z,99707.25
2023-03-29T06:15:38.537Z,99700.63
2023-03-29T06:17:40.335Z,99702.66
2023-03-29T06:19:42.107Z,99691.94
2023-03-29T06:21:43.497Z,99698.03
2023-03-29T06:23:44.999Z,99690.38
2023-03-29T06:25:47.092Z,99696.47
2023-03-29T06:27:48.534Z,99696.06
2023-03-29T06:29:49.898Z,99694.28
2023-03-29T06:31:51.649Z,99690.06
2023-03-29T06:33:53.263Z,99700.56
2023-03-29T06:35:54.864Z,99705.81
2023-03-29T06:37:56.270Z,99706.63
2023-03-29T06:39:58.005Z,99693.72
2023-03-29T06:42:03.497Z,99697.75
2023-03-29T06:44:08.902Z,99702.84
2023-03-29T06:46:12.348Z,99696.38
2023-03-29T06:48:13.903Z,99692.34
2023-03-29T06:50:17.210Z,99691.53
2023-03-29T06:52:18.619Z,99690.53
2023-03-29T06:54:19.989Z,99688.72
2023-03-29T06:56:22.243Z,99693.19
2023-03-29T06:58:23.689Z,99697.63
2023-03-29T07:00:28.499Z,99702.28
2023-03-29T07:02:30.530Z,99710.81
2023-03-29T07:04:32.263Z,99702.72
2023-03-29T07:06:33.883Z,99709.00
2023-03-29T07:08:47.365Z,99714.28
2023-03-29T07:10:53.208Z,99705.81
2023-03-29T07:12:54.893Z,99708.63
2023-03-29T07:14:56.295Z,99711.25
2023-03-29T07:16:58.435Z,99702.19
2023-03-29T07:19:00.155Z,99706.63
2023-03-29T07:21:01.696Z,99710.88
2023-03-29T07:23:03.293Z,99706.44
2023-03-29T07:25:05.739Z,99705.22
2023-03-29T07:27:08.659Z,99709.47
2023-03-29T07:29:10.084Z,99710.69
2023-03-29T07:31:13.332Z,99704.41
2023-03-29T07:33:15.025Z,99702.78
2023-03-29T07:35:17.735Z,99698.94
2023-03-29T07:37:19.307Z,99706.63
2023-03-29T07:39:22.995Z,99705.63
2023-03-29T07:41:24.386Z,99704.22
2023-03-29T07:43:25.773Z,99709.47
2023-03-29T07:45:30.875Z,99710.47
2023-03-29T07:47:33.028Z,99708.66
2023-03-29T07:49:34.479Z,99712.09
2023-03-29T07:51:37.032Z,99713.50
2023-03-29T07:53:38.447Z,99710.44
2023-03-29T07:55:47.555Z,99711.25
2023-03-29T07:57:50.190Z,99717.53
2023-03-29T07:59:51.748Z,99713.25
2023-03-29T08:01:55.238Z,99708.19
2023-03-29T08:03:56.848Z,99706.72
2023-03-29T08:06:02.058Z,99720.53
2023-03-29T08:08:03.554Z,99709.97
2023-03-29T08:10:05.556Z,99710.56
2023-03-29T08:12:07.553Z,99717.88
2023-03-29T08:14:09.052Z,99705.88
2023-03-29T08:16:10.510Z,99711.34
2023-03-29T08:18:11.924Z,99707.88
2023-03-29T08:20:16.176Z,99706.25
2023-03-29T08:22:17.929Z,99697.69
2023-03-29T08:24:20.990Z,99692.25
2023-03-29T08:26:22.541Z,99698.66
2023-03-29T08:28:25.005Z,99687.09
2023-03-29T08:30:27.022Z,99681.06
2023-03-29T08:32:28.567Z,99676.34
2023-03-29T08:34:31.712Z,99683.41
2023-03-29T08:36:33.241Z,99684.81
2023-03-29T08:38:34.624Z,99686.31
2023-03-29T08:40:36.657Z,99690.16
2023-03-29T08:42:44.925Z,99691.44
2023-03-29T08:44:49.307Z,99692.25
2023-03-29T08:47:09.583Z,99685.13
2023-03-29T08:49:12.600Z,99692.34
2023-03-29T08:51:33.384Z,99695.81
2023-03-29T08:53:50.066Z,99678.91
2023-03-29T08:55:55.666Z,99683.41
2023-03-29T08:57:59.175Z,99685.47
2023-03-29T09:00:05.437Z,99689.56
2023-03-29T09:02:16.707Z,99685.16
2023-03-29T09:04:23.153Z,99691.59
2023-03-29T09:06:24.737Z,99696.72
2023-03-29T09:08:26.703Z,99691.66
2023-03-29T09:10:39.524Z,99690.47
2023-03-29T09:13:01.724Z,99689.25
2023-03-29T09:15:11.632Z,99688.47
2023-03-29T09:17:34.371Z,99692.53
2023-03-29T09:19:54.139Z,99687.63
2023-03-29T09:22:00.300Z,99693.03
2023-03-29T09:24:17.111Z,99689.19
2023-03-29T09:26:31.091Z,99683.75
2023-03-29T09:28:35.372Z,99690.88
2023-03-29T09:30:41.635Z,99684.94
2023-03-29T09:32:54.885Z,99691.63
2023-03-29T09:35:24.304Z,99689.38
2023-03-29T09:37:32.622Z,99688.81
2023-03-29T09:39:34.155Z,99699.78
2023-03-29T09:41:46.512Z,99699.03
2023-03-29T09:43:50.782Z,99698.16
2023-03-29T09:45:56.295Z,99692.66
2023-03-29T09:48:02.590Z,99689.44
2023-03-29T09:50:29.601Z,99683.06
2023-03-29T09:52:32.347Z,99683.75
2023-03-29T09:54:33.904Z,99680.13
2023-03-29T09:56:35.608Z,99680.44
2023-03-29T09:58:37.373Z,99682.75
2023-03-29T10:00:39.840Z,99680.63
2023-03-29T10:02:41.801Z,99674.63
2023-03-29T10:04:43.200Z,99675.00
2023-03-29T10:06:49.433Z,99677.53
2023-03-29T10:08:54.926Z,99679.50
2023-03-29T10:11:00.723Z,99672.50
2023-03-29T10:13:12.141Z,99667.44
2023-03-29T10:15:26.715Z,99679.19
2023-03-29T10:17:40.200Z,99667.09
2023-03-29T10:19:51.806Z,99665.94
2023-03-29T10:21:54.997Z,99663.63
2023-03-29T10:23:59.428Z,99660.97
2023-03-29T10:26:04.290Z,99649.47
2023-03-29T10:28:16.095Z,99656.25
2023-03-29T10:30:25.952Z,99665.47
2023-03-29T10:32:34.265Z,99659.94
2023-03-29T10:34:36.285Z,99658.66
2023-03-29T10:36:42.062Z,99658.44
2023-03-29T10:38:44.603Z,99658.44
2023-03-29T10:40:48.760Z,99658.25
2023-03-29T10:42:51.897Z,99657.56
2023-03-29T10:44:59.055Z,99657.84
2023-03-29T10:47:16.283Z,99657.25
2023-03-29T10:49:22.841Z,99660.09
2023-03-29T10:51:27.659Z,99657.09
2023-03-29T10:53:32.574Z,99656.91
2023-03-29T10:55:41.383Z,99654.03
2023-03-29T10:58:26.369Z,99648.50
2023-03-29T11:00:45.391Z,99655.13
2023-03-29T11:03:02.350Z,99640.88
2023-03-29T11:05:40.999Z,99641.91
2023-03-29T11:07:53.519Z,99653.06
2023-03-29T11:10:01.494Z,99640.69
2023-03-29T11:12:28.000Z,99637.78
2023-03-29T11:15:04.781Z,99632.16
2023-03-29T11:17:34.079Z,99630.31
2023-03-29T11:19:35.452Z,99624.81
2023-03-29T11:22:06.845Z,99619.47
2023-03-29T11:24:27.868Z,99626.59
2023-03-29T11:26:40.352Z,99627.47
2023-03-29T11:28:52.977Z,99618.84
2023-03-29T11:31:34.833Z,99623.44
2023-03-29T11:33:58.510Z,99617.63
2023-03-29T11:36:12.550Z,99612.09
2023-03-29T11:38:32.788Z,99610.66
2023-03-29T11:41:05.510Z,99615.09
2023-03-29T11:43:33.760Z,99613.97
2023-03-29T11:46:16.885Z,99618.06
2023-03-29T11:48:28.529Z,99612.81
2023-03-29T11:50:43.631Z,99609.56
2023-03-29T11:52:53.232Z,99605.19
2023-03-29T11:55:02.682Z,99614.75
2023-03-29T11:57:39.851Z,99614.81
2023-03-29T11:59:50.206Z,99604.34
2023-03-29T12:02:12.164Z,99600.56
2023-03-29T12:04:22.868Z,99595.09
2023-03-29T12:06:50.557Z,99593.34
2023-03-29T12:09:01.208Z,99592.44
2023-03-29T12:11:09.818Z,99591.22
2023-03-29T12:13:14.421Z,99576.28
2023-03-29T12:15:20.328Z,99588.72
2023-03-29T12:17:30.721Z,99576.72
2023-03-29T12:19:41.004Z,99566.59
2023-03-29T12:21:46.100Z,99564.69
2023-03-29T12:23:48.452Z,99570.16
2023-03-29T12:26:00.394Z,99563.41
2023-03-29T12:28:20.613Z,99568.00
2023-03-29T12:30:42.675Z,99564.91
2023-03-29T12:33:03.488Z,99562.00
2023-03-29T12:35:14.041Z,99569.19
2023-03-29T12:37:32.189Z,99562.13
2023-03-29T12:39:36.050Z,99567.19
2023-03-29T12:41:38.349Z,99551.47
2023-03-29T12:43:43.393Z,99559.84
2023-03-29T12:45:48.530Z,99562.06
2023-03-29T12:47:51.495Z,99558.16
2023-03-29T12:49:56.513Z,99563.22
2023-03-29T12:51:59.978Z,99548.06
2023-03-29T12:54:17.716Z,99539.78
2023-03-29T12:56:24.089Z,99544.03
2023-03-29T12:58:43.671Z,99540.22
2023-03-29T13:00:45.555Z,99542.16
2023-03-29T13:03:00.156Z,99532.59
2023-03-29T13:05:01.998Z,99534.66
2023-03-29T13:07:04.872Z,99529.31
2023-03-29T13:09:29.895Z,99527.34
2023-03-29T13:11:40.723Z,99540.94
2023-03-29T13:13:43.510Z,99533.69
2023-03-29T13:15:46.108Z,99530.88
2023-03-29T13:17:56.243Z,99541.22
2023-03-29T13:20:19.257Z,99544.22
2023-03-29T13:22:23.722Z,99545.75
2023-03-29T13:24:54.091Z,99534.69
2023-03-29T13:27:39.637Z,99540.19
2023-03-29T13:29:49.223Z,99546.25
2023-03-29T13:31:59.645Z,99544.84
2023-03-29T13:34:14.260Z,99551.75
2023-03-29T13:36:37.597Z,99555.00
2023-03-29T13:38:54.054Z,99547.09
2023-03-29T13:41:07.179Z,99543.66
2023-03-29T13:43:18.526Z,99540.28
2023-03-29T13:45:22.973Z,99544.31
2023-03-29T13:47:37.013Z,99533.75
2023-03-29T13:49:42.338Z,99528.28
2023-03-29T13:52:02.303Z,99529.44
2023-03-29T13:54:09.401Z,99521.69
2023-03-29T13:56:17.775Z,99520.88
2023-03-29T13:58:38.137Z,99510.75
2023-03-29T14:00:52.049Z,99521.44
2023-03-29T14:02:56.660Z,99510.75
2023-03-29T14:05:01.853Z,99515.84
2023-03-29T14:07:06.118Z,99514.75
2023-03-29T14:09:08.955Z,99525.91
2023-03-29T14:11:24.575Z,99521.28
2023-03-29T14:13:27.127Z,99505.78
2023-03-29T14:15:43.695Z,99510.66
2023-03-29T14:17:45.163Z,99495.44
2023-03-29T14:19:47.860Z,99502.91
2023-03-29T14:21:52.012Z,99489.53
2023-03-29T14:26:33.066Z,99485.38
2023-03-29T14:28:34.491Z,99488.06
2023-03-29T14:30:36.032Z,99467.78
2023-03-29T14:32:39.160Z,99468.28
2023-03-29T14:34:40.706Z,99475.72
2023-03-29T14:36:45.616Z,99459.75
2023-03-29T14:38:59.437Z,99452.56
2023-03-29T14:41:02.516Z,99452.81
2023-03-29T14:43:07.911Z,99449.09
2023-03-29T14:45:13.461Z,99448.00
2023-03-29T14:47:36.290Z,99448.81
2023-03-29T14:49:37.766Z,99446.16
2023-03-29T14:51:40.384Z,99454.94
2023-03-29T14:53:42.480Z,99442.41
2023-03-29T14:55:48.127Z,99442.91
2023-03-29T14:57:56.152Z,99447.19
2023-03-29T15:00:08.033Z,99450.97
2023-03-29T15:02:23.224Z,99448.81
2023-03-29T15:04:32.190Z,99449.34
2023-03-29T15:06:39.398Z,99441.31
2023-03-29T15:08:48.221Z,99440.78
2023-03-29T15:10:59.677Z,99439.19
2023-03-29T15:13:03.706Z,99432.25
2023-03-29T15:15:07.633Z,99426.41
2023-03-29T15:17:50.415Z,99430.66
2023-03-29T15:19:59.011Z,99419.69
2023-03-29T15:22:05.944Z,99414.91
2023-03-29T15:24:21.158Z,99409.91
2023-03-29T15:26:32.580Z,99422.72
2023-03-29T15:28:35.522Z,99410.88
2023-03-29T15:30:46.260Z,99419.13
2023-03-29T15:32:52.971Z,99408.38
2023-03-29T15:34:59.424Z,99407.47
2023-03-29T15:37:02.324Z,99400.50
2023-03-29T15:39:03.754Z,99396.34
2023-03-29T15:41:06.461Z,99394.44
2023-03-29T15:43:08.025Z,99385.75
2023-03-29T15:45:17.697Z,99385.50
2023-03-29T15:47:19.109Z,99379.41
2023-03-29T15:49:21.124Z,99375.66
2023-03-29T15:51:22.542Z,99368.47
2023-03-29T15:53:23.951Z,99363.41
2023-03-29T15:55:29.446Z,99355.16
2023-03-29T15:57:31.257Z,99346.63
2023-03-29T15:59:33.529Z,99343.69
2023-03-29T16:01:37.584Z,99341.28
2023-03-29T16:03:39.870Z,99344.50
2023-03-29T16:05:45.522Z,99346.34
2023-03-29T16:07:46.925Z,99334.06
2023-03-29T16:09:48.356Z,99337.81
2023-03-29T16:11:50.229Z,99333.53
2023-03-29T16:13:51.740Z,99323.94
2023-03-29T16:15:53.233Z,99330.84
2023-03-29T16:17:54.673Z,99327.13
2023-03-29T16:19:56.093Z,99327.66
2023-03-29T16:21:58.822Z,99330.06
2023-03-29T16:24:00.286Z,99321.19
2023-03-29T16:26:01.947Z,99328.13
2023-03-29T16:28:04.840Z,99322.50
2023-03-29T16:30:07.064Z,99318.22
2023-03-29T16:32:10.468Z,99315.78
2023-03-29T16:34:13.133Z,99313.38
2023-03-29T16:36:14.613Z,99307.53
2023-03-29T16:38:16.033Z,99308.88
2023-03-29T16:40:17.584Z,99313.94
2023-03-29T16:42:19.041Z,99306.72
2023-03-29T16:44:23.841Z,99316.28
2023-03-29T16:46:26.570Z,99306.97
2023-03-29T16:48:28.201Z,99304.28
2023-03-29T16:50:29.658Z,99305.06
2023-03-29T16:52:32.309Z,99307.44
2023-03-29T16:54:33.810Z,99298.66
2023-03-29T16:56:36.749Z,99307.41
2023-03-29T16:58:42.478Z,99295.16
2023-03-29T17:00:47.240Z,99287.13
2023-03-29T17:02:49.706Z,99295.66
2023-03-29T17:04:51.460Z,99290.31
2023-03-29T17:06:53.484Z,99288.19
2023-03-29T17:08:54.987Z,99292.41
2023-03-29T17:10:56.402Z,99292.13
2023-03-29T17:12:58.022Z,99291.84
2023-03-29T17:14:59.568Z,99291.06
2023-03-29T17:17:00.959Z,99285.97
2023-03-29T17:19:02.483Z,99284.34
2023-03-29T17:21:04.189Z,99285.41
2023-03-29T17:23:05.662Z,99277.41
2023-03-29T17:25:08.950Z,99277.13
2023-03-29T17:27:10.355Z,99269.97
2023-03-29T17:29:11.846Z,99271.28
2023-03-29T17:31:13.351Z,99270.94
2023-03-29T17:33:14.969Z,99268.03
2023-03-29T17:35:16.436Z,99270.41
2023-03-29T17:37:17.845Z,99270.66
2023-03-29T17:39:19.447Z,99272.22
2023-03-29T17:41:21.360Z,99268.47
2023-03-29T17:43:23.130Z,99269.81
2023-03-29T17:45:24.545Z,99259.09
2023-03-29T17:47:26.051Z,99266.28
2023-03-29T17:49:27.632Z,99264.97
2023-03-29T17:51:29.021Z,99263.63
2023-03-29T17:53:30.596Z,99259.91
2023-03-29T17:55:32.020Z,99267.31
2023-03-29T17:57:33.457Z,99263.31
2023-03-29T17:59:36.857Z,99273.66
2023-03-29T18:01:39.389Z,99266.50
2023-03-29T18:03:41.723Z,99268.06
2023-03-29T18:05:43.245Z,99271.25
2023-03-29T18:07:44.629Z,99276.53
2023-03-29T18:09:46.147Z,99283.19
2023-03-29T18:11:47.623Z,99263.50
2023-03-29T18:13:50.414Z,99259.22
2023-03-29T18:15:56.459Z,99258.69
2023-03-29T18:17:57.970Z,99256.03
2023-03-29T18:19:59.795Z,99246.44
2023-03-29T18:22:03.327Z,99248.28
2023-03-29T18:24:04.918Z,99237.88
2023-03-29T18:26:07.329Z,99244.00
2023-03-29T18:28:09.098Z,99242.97
2023-03-29T18:30:13.124Z,99242.91
2023-03-29T18:32:14.791Z,99244.25
2023-03-29T18:34:16.315Z,99243.97
2023-03-29T18:36:17.756Z,99241.81
2023-03-29T18:38:21.182Z,99233.31
2023-03-29T18:40:25.677Z,99241.53
2023-03-29T18:42:27.250Z,99224.47
2023-03-29T18:44:29.196Z,99227.91
2023-03-29T18:46:31.666Z,99228.91
2023-03-29T18:48:39.057Z,99227.34
2023-03-29T18:50:44.819Z,99223.88
2023-03-29T18:52:46.233Z,99230.97
2023-03-29T18:54:47.594Z,99232.84
2023-03-29T18:56:49.114Z,99233.09
2023-03-29T18:58:50.681Z,99239.16
2023-03-29T19:00:52.150Z,99238.34
2023-03-29T19:02:53.745Z,99230.38
2023-03-29T19:04:55.282Z,99230.38
2023-03-29T19:06:56.742Z,99225.09
2023-03-29T19:09:01.827Z,99224.53
2023-03-29T19:11:05.834Z,99226.09
2023-03-29T19:13:07.374Z,99222.59
2023-03-29T19:15:09.719Z,99224.19
2023-03-29T19:17:11.205Z,99216.16
2023-03-29T19:19:12.842Z,99215.03
2023-03-29T19:21:14.406Z,99216.06
2023-03-29T19:23:15.842Z,99211.56
2023-03-29T19:25:17.384Z,99203.38
2023-03-29T19:27:19.076Z,99203.59
2023-03-29T19:29:20.659Z,99200.31
2023-03-29T19:31:22.490Z,99201.69
2023-03-29T19:33:24.011Z,99195.63
2023-03-29T19:35:25.522Z,99193.50
2023-03-29T19:37:27.021Z,99194.47
2023-03-29T19:39:29.759Z,99188.38
2023-03-29T19:41:31.558Z,99178.56
2023-03-29T19:43:34.016Z,99187.56
2023-03-29T19:45:36.249Z,99184.09
2023-03-29T19:47:37.706Z,99180.09
2023-03-29T19:49:39.381Z,99175.91
2023-03-29T19:51:42.030Z,99170.66
2023-03-29T19:53:43.523Z,99168.97
2023-03-29T19:55:45.162Z,99174.22
2023-03-29T19:57:46.907Z,99169.44
2023-03-29T19:59:48.313Z,99171.84
2023-03-29T20:01:52.582Z,99162.56
2023-03-29T20:03:54.304Z,99165.16
2023-03-29T20:05:56.583Z,99169.13
2023-03-29T20:07:58.001Z,99162.22
2023-03-29T20:09:59.366Z,99161.44
2023-03-29T20:12:00.795Z,99158.22
2023-03-29T20:14:02.162Z,99149.66
2023-03-29T20:16:04.095Z,99150.97
2023-03-29T20:18:05.931Z,99142.75
2023-03-29T20:20:09.794Z,99140.84
2023-03-29T20:22:12.016Z,99135.00
2023-03-29T20:24:13.435Z,99132.59
2023-03-29T20:26:15.327Z,99149.00
2023-03-29T20:28:17.208Z,99143.16
2023-03-29T20:30:18.933Z,99136.00
2023-03-29T20:32:20.492Z,99141.53
2023-03-29T20:34:22.357Z,99135.72
2023-03-29T20:36:23.916Z,99139.69
2023-03-29T20:38:25.489Z,99142.91
2023-03-29T20:40:28.687Z,99134.94
2023-03-29T20:42:34.228Z,99136.00
2023-03-29T20:44:35.636Z,99127.47
2023-03-29T20:46:38.013Z,99138.03
2023-03-29T20:48:45.911Z,99129.28
2023-03-29T20:50:48.300Z,99133.47
2023-03-29T20:52:49.696Z,99132.38
2023-03-29T20:54:51.262Z,99128.91
2023-03-29T20:56:54.661Z,99131.06
2023-03-29T20:58:57.214Z,99129.53
2023-03-29T21:00:58.883Z,99122.28
2023-03-29T21:03:00.529Z,99119.56
2023-03-29T21:05:02.253Z,99123.78
2023-03-29T21:07:05.610Z,99121.66
2023-03-29T21:09:07.188Z,99116.34
2023-03-29T21:11:12.985Z,99105.16
2023-03-29T21:13:14.436Z,99108.03
2023-03-29T21:15:17.787Z,99094.78
2023-03-29T21:17:19.369Z,99083.88
2023-03-29T21:19:21.135Z,99093.44
2023-03-29T21:21:25.494Z,99093.13
2023-03-29T21:23:27.007Z,99094.69
2023-03-29T21:25:28.474Z,99091.72
2023-03-29T21:27:29.834Z,99086.69
2023-03-29T21:29:31.234Z,99085.31
2023-03-29T21:31:32.730Z,99082.66
2023-03-29T21:33:35.396Z,99079.50
2023-03-29T21:35:37.020Z,99077.84
2023-03-29T21:37:38.710Z,99071.50
2023-03-29T21:39:40.527Z,99067.81
2023-03-29T21:41:41.960Z,99062.75
2023-03-29T21:43:43.738Z,99060.19
2023-03-29T21:45:49.782Z,99060.19
2023-03-29T21:47:51.291Z,99050.34
2023-03-29T21:49:52.764Z,99049.06
2023-03-29T21:51:54.216Z,99051.72
2023-03-29T21:53:55.631Z,99039.50
2023-03-29T21:55:57.091Z,99040.31
2023-03-29T21:57:58.465Z,99033.38
2023-03-29T21:59:59.871Z,99035.25
2023-03-29T22:02:01.563Z,99040.56
2023-03-29T22:04:04.084Z,99041.31
2023-03-29T22:06:10.946Z,99030.44
2023-03-29T22:08:12.356Z,99022.78
2023-03-29T22:10:13.826Z,99029.41
2023-03-29T22:12:15.218Z,99026.97
2023-03-29T22:14:16.645Z,99016.09
2023-03-29T22:16:18.305Z,99021.34
2023-03-29T22:18:20.696Z,99013.16
2023-03-29T22:20:22.720Z,99011.28
2023-03-29T22:22:24.431Z,98999.88
2023-03-29T22:24:25.878Z,99005.16
2023-03-29T22:26:29.832Z,99011.81
2023-03-29T22:28:31.646Z,99015.50
2023-03-29T22:30:33.054Z,99023.13
2023-03-29T22:32:34.646Z,99014.94
2023-03-29T22:34:36.205Z,99021.84
2023-03-29T22:36:37.827Z,99022.13
2023-03-29T22:38:39.284Z,99028.59
2023-03-29T22:40:40.711Z,99029.66
2023-03-29T22:42:42.090Z,99015.13
2023-03-29T22:44:43.500Z,99012.94
2023-03-29T22:46:44.957Z,99017.69
2023-03-29T22:48:46.906Z,99010.00
2023-03-29T22:50:48.504Z,99017.69
2023-03-29T22:52:51.103Z,99007.03
2023-03-29T22:54:52.548Z,99009.16
2023-03-29T22:56:54.101Z,99010.19
2023-03-29T22:58:55.569Z,99002.97
2023-03-29T23:00:57.722Z,99007.50
2023-03-29T23:02:59.307Z,98995.00
2023-03-29T23:05:00.731Z,98998.38
2023-03-29T23:07:02.214Z,98990.06
2023-03-29T23:09:03.857Z,98983.69
2023-03-29T23:11:05.543Z,98970.03
2023-03-29T23:13:10.236Z,98967.63
2023-03-29T23:15:12.095Z,98985.34
2023-03-29T23:17:13.545Z,98984.66
2023-03-29T23:19:14.914Z,98972.88
2023-03-29T23:21:16.639Z,98972.00
2023-03-29T23:23:19.877Z,98966.16
2023-03-29T23:25:21.254Z,98960.81
2023-03-29T23:27:22.674Z,98964.56
2023-03-29T23:29:26.210Z,98963.25
2023-03-29T23:31:27.639Z,98969.44
2023-03-29T23:33:33.142Z,98964.56
2023-03-29T23:35:34.549Z,98960.25
2023-03-29T23:37:36.094Z,98960.56
2023-03-29T23:39:37.609Z,98949.09
2023-03-29T23:41:40.131Z,98952.19
2023-03-29T23:43:43.278Z,98950.81
2023-03-29T23:45:45.329Z,98953.53
2023-03-29T23:47:47.341Z,98953.22
2023-03-29T23:49:48.712Z,98954.53
2023-03-29T23:51:50.442Z,98955.75
2023-03-29T23:53:52.160Z,98955.41
2023-03-29T23:55:56.143Z,98949.63
2023-03-29T23:57:57.686Z,98954.22
